Time;durP1;ratioP1;P1;durP2;ratioP2;P2;SDS_P1;SDS_P2;PMS_P1;PMS_P2;Temp;Humidity;BMP_temperature;BMP_pressure;BME280_temperature;BME280_humidity;BME280_pressure;Samples;Min_cycle;Max_cycle;Signal;HPM_P1;HPM_P2
2023/09/20 00:00:32;;;;;;;;;3.40;3.00;;;;;18.24;61.50;99316.19;5097160;28;8840;-58
2023/09/20 00:03:00;;;;;;;;;3.60;3.00;;;;;18.27;61.50;99312.25;5096279;28;8830;-57
2023/09/20 00:05:27;;;;;;;;;1.80;1.80;;;;;18.28;61.83;99316.66;5096004;28;8915;-60
2023/09/20 00:07:56;;;;;;;;;1.00;1.00;;;;;18.29;61.44;99305.66;5096071;28;8929;-59
2023/09/20 00:10:23;;;;;;;;;1.00;1.00;;;;;18.31;61.80;99306.38;5097457;28;8826;-59
2023/09/20 00:12:51;;;;;;;;;3.00;3.00;;;;;18.33;61.72;99309.72;5096572;28;8838;-58
2023/09/20 00:15:18;;;;;;;;;3.00;3.00;;;;;18.33;62.17;99308.88;5096124;28;8837;-57
2023/09/20 00:17:46;;;;;;;;;1.40;1.40;;;;;18.36;62.12;99303.94;5096524;28;8822;-57
2023/09/20 00:20:14;;;;;;;;;2.20;2.20;;;;;18.37;62.34;99310.19;5096368;28;8810;-58
2023/09/20 00:22:42;;;;;;;;;3.00;2.60;;;;;18.37;61.78;99312.88;5095888;28;8861;-58
2023/09/20 00:25:10;;;;;;;;;2.60;2.60;;;;;18.38;61.85;99306.47;5096230;28;8822;-57
2023/09/20 00:27:38;;;;;;;;;1.40;1.40;;;;;18.38;62.56;99307.28;5096538;28;8826;-58
2023/09/20 00:30:09;;;;;;;;;1.00;1.00;;;;;18.38;62.47;99299.19;5095625;28;8818;-57
2023/09/20 00:32:39;;;;;;;;;1.80;1.80;;;;;18.39;61.79;99294.66;5096037;28;8822;-58
2023/09/20 00:35:07;;;;;;;;;1.00;0.40;;;;;18.41;62.32;99296.13;5096652;28;8837;-58
2023/09/20 00:37:35;;;;;;;;;1.80;1.80;;;;;18.43;61.91;99302.16;5095954;28;8869;-57
2023/09/20 00:40:03;;;;;;;;;4.00;3.60;;;;;18.42;62.12;99303.19;5095332;28;8802;-57
2023/09/20 00:42:31;;;;;;;;;3.40;3.00;;;;;18.39;62.65;99298.19;5095721;28;8826;-58
2023/09/20 00:45:01;;;;;;;;;3.00;1.00;;;;;18.36;62.48;99297.72;5096007;28;8829;-56
2023/09/20 00:47:29;;;;;;;;;1.00;1.00;;;;;18.33;62.42;99301.63;5095798;28;8830;-58
2023/09/20 00:49:57;;;;;;;;;2.60;2.60;;;;;18.30;62.54;99304.69;5095226;28;8848;-59
2023/09/20 00:52:27;;;;;;;;;1.80;1.00;;;;;18.30;62.91;99299.28;5096130;28;8926;-58
2023/09/20 00:54:56;;;;;;;;;3.00;3.00;;;;;18.31;62.65;99300.13;5095540;28;8830;-58
2023/09/20 00:57:24;;;;;;;;;1.80;1.80;;;;;18.29;62.38;99296.75;5095732;28;8865;-57
2023/09/20 00:59:51;;;;;;;;;3.80;3.00;;;;;18.29;62.42;99299.47;5094873;28;8820;-57
2023/09/20 01:02:19;;;;;;;;;3.00;1.00;;;;;18.27;62.66;99294.25;5095747;28;8838;-58
2023/09/20 01:04:47;;;;;;;;;3.00;3.00;;;;;18.30;62.69;99293.06;5095594;28;8848;-58
2023/09/20 01:07:15;;;;;;;;;1.40;1.00;;;;;18.33;62.98;99292.69;5095420;28;8864;-57
2023/09/20 01:09:44;;;;;;;;;3.00;3.00;;;;;18.34;62.60;99287.13;5094876;28;8846;-57
2023/09/20 01:12:12;;;;;;;;;3.00;3.00;;;;;18.38;62.53;99291.09;5095353;28;8806;-59
2023/09/20 01:14:39;;;;;;;;;0.80;0.80;;;;;18.41;62.49;99301.53;5095624;28;8822;-57
2023/09/20 01:17:08;;;;;;;;;0.60;0.20;;;;;18.43;62.95;99294.06;5095532;28;8852;-59
2023/09/20 01:19:35;;;;;;;;;0.20;0.20;;;;;18.44;62.73;99306.53;5094667;28;8842;-58
2023/09/20 01:22:03;;;;;;;;;3.20;3.00;;;;;18.45;63.01;99292.03;5095426;28;8842;-60
2023/09/20 01:24:31;;;;;;;;;1.80;1.80;;;;;18.48;62.24;99291.66;5095661;28;8881;-57
2023/09/20 01:26:58;;;;;;;;;3.00;1.00;;;;;18.49;62.10;99293.34;5095349;28;8833;-58
2023/09/20 01:29:26;;;;;;;;;1.40;1.40;;;;;18.50;62.84;99303.09;5094318;28;8814;-58
2023/09/20 01:31:54;;;;;;;;;2.20;2.20;;;;;18.47;62.78;99295.38;5095368;28;8850;-58
2023/09/20 01:34:22;;;;;;;;;1.40;1.40;;;;;18.47;63.08;99290.00;5095348;28;8891;-58
2023/09/20 01:36:50;;;;;;;;;1.00;1.00;;;;;18.44;62.86;99293.06;5095324;28;8818;-57
2023/09/20 01:39:18;;;;;;;;;3.00;3.00;;;;;18.40;62.65;99289.06;5094523;28;8829;-58
2023/09/20 01:41:47;;;;;;;;;2.60;2.60;;;;;18.38;62.76;99298.38;5095130;28;8821;-60
2023/09/20 01:44:15;;;;;;;;;3.40;3.40;;;;;18.35;62.82;99291.47;5094960;28;8815;-58
2023/09/20 01:46:43;;;;;;;;;2.20;1.00;;;;;18.31;63.42;99283.97;5094938;28;8830;-57
2023/09/20 01:49:10;;;;;;;;;2.60;2.60;;;;;18.27;63.64;99294.25;5094443;28;8910;-59
2023/09/20 01:51:38;;;;;;;;;1.00;1.00;;;;;18.22;63.43;99290.44;5095250;28;8837;-58
2023/09/20 01:54:06;;;;;;;;;4.00;3.00;;;;;18.18;63.46;99276.50;5094765;28;8838;-59
2023/09/20 01:56:33;;;;;;;;;2.20;2.20;;;;;18.13;63.62;99275.41;5094703;28;8814;-58
2023/09/20 01:59:05;;;;;;;;;1.00;1.00;;;;;18.08;64.24;99267.84;5094796;28;9444;-58
2023/09/20 02:01:33;;;;;;;;;3.00;3.00;;;;;18.04;64.47;99277.34;5094670;28;8838;-57
2023/09/20 02:04:01;;;;;;;;;1.00;1.00;;;;;18.01;64.36;99275.03;5094770;28;8840;-57
2023/09/20 02:06:29;;;;;;;;;1.00;1.00;;;;;17.97;64.64;99281.78;5095127;28;8830;-57
2023/09/20 02:08:56;;;;;;;;;2.20;2.20;;;;;17.93;64.58;99282.34;5094696;28;8826;-58
2023/09/20 02:11:24;;;;;;;;;1.80;1.80;;;;;17.92;64.62;99283.38;5094054;28;8829;-57
2023/09/20 02:13:53;;;;;;;;;1.40;1.40;;;;;17.89;64.70;99287.25;5094395;28;8937;-57
2023/09/20 02:16:21;;;;;;;;;0.80;0.40;;;;;17.87;64.84;99291.16;5094455;28;8941;-58
2023/09/20 02:18:50;;;;;;;;;1.00;1.00;;;;;17.83;64.52;99287.19;5094341;28;8842;-58
2023/09/20 02:21:18;;;;;;;;;1.00;1.00;;;;;17.80;65.03;99285.69;5094523;28;8923;-57
2023/09/20 02:23:46;;;;;;;;;1.00;1.00;;;;;17.77;65.35;99277.13;5095534;28;8839;-57
2023/09/20 02:26:13;;;;;;;;;1.60;1.40;;;;;17.76;64.64;99287.06;5094920;28;8830;-58
2023/09/20 02:28:44;;;;;;;;;2.60;2.60;;;;;17.74;65.07;99281.03;5093993;28;8842;-59
2023/09/20 02:31:12;;;;;;;;;4.00;4.00;;;;;17.73;64.89;99284.75;5094536;28;8842;-56
2023/09/20 02:33:40;;;;;;;;;1.00;1.00;;;;;17.71;65.41;99276.00;5094080;28;8903;-57
2023/09/20 02:36:07;;;;;;;;;1.00;1.00;;;;;17.70;65.21;99274.31;5094381;28;8830;-57
2023/09/20 02:38:37;;;;;;;;;2.60;2.60;;;;;17.69;65.46;99277.22;5094730;28;8814;-57
2023/09/20 02:41:05;;;;;;;;;3.00;3.00;;;;;17.69;65.08;99272.63;5095089;28;8840;-59
2023/09/20 02:43:32;;;;;;;;;0.00;0.00;;;;;17.68;65.32;99259.38;5098176;28;8833;-57
2023/09/20 02:46:03;;;;;;;;;1.00;1.00;;;;;17.66;64.80;99261.41;5097884;28;8842;-58
2023/09/20 02:48:31;;;;;;;;;3.60;2.20;;;;;17.64;65.10;99263.44;5097764;28;8833;-58
2023/09/20 02:50:59;;;;;;;;;1.00;0.80;;;;;17.60;65.70;99268.34;5097246;28;8826;-57
2023/09/20 02:53:27;;;;;;;;;0.60;0.60;;;;;17.58;65.56;99265.03;5098235;28;8946;-57
2023/09/20 02:55:55;;;;;;;;;2.60;1.00;;;;;17.57;65.42;99259.81;5098731;28;8856;-58
2023/09/20 02:58:22;;;;;;;;;2.20;1.00;;;;;17.56;65.03;99260.84;5097920;28;8810;-59
2023/09/20 03:00:51;;;;;;;;;3.00;2.60;;;;;17.54;65.70;99262.88;5097554;28;8818;-59
2023/09/20 03:03:19;;;;;;;;;0.40;0.40;;;;;17.52;65.70;99262.19;5097908;28;8836;-57
2023/09/20 03:05:46;;;;;;;;;3.00;2.20;;;;;17.49;65.65;99263.44;5097686;28;8968;-57
2023/09/20 03:08:14;;;;;;;;;3.00;3.00;;;;;17.50;66.02;99259.72;5097699;28;8829;-58
2023/09/20 03:10:42;;;;;;;;;0.60;0.60;;;;;17.52;66.24;99254.97;5097520;28;8810;-57
2023/09/20 03:13:16;;;;;;;;;1.80;1.00;;;;;17.53;66.21;99253.94;5097625;28;8838;-57
2023/09/20 03:15:44;;;;;;;;;0.00;0.00;;;;;17.51;65.55;99242.53;5098023;28;8845;-58
2023/09/20 03:18:13;;;;;;;;;2.20;1.80;;;;;17.51;65.58;99239.84;5097552;28;8834;-60
2023/09/20 03:20:48;;;;;;;;;5.60;3.00;;;;;17.52;65.70;99237.97;5097122;28;8814;-57
2023/09/20 03:23:15;;;;;;;;;3.40;0.60;;;;;17.52;65.78;99237.97;5098001;28;8864;-57
2023/09/20 03:25:43;;;;;;;;;0.20;0.20;;;;;17.52;66.00;99238.81;5097691;28;8822;-57
2023/09/20 03:28:10;;;;;;;;;3.00;3.00;;;;;17.51;65.90;99234.47;5097689;28;8826;-57
2023/09/20 03:30:39;;;;;;;;;1.00;1.00;;;;;17.51;66.35;99229.06;5097217;28;8830;-57
2023/09/20 03:33:07;;;;;;;;;3.00;3.00;;;;;17.50;66.37;99227.41;5097114;28;8838;-58
2023/09/20 03:35:35;;;;;;;;;3.00;3.00;;;;;17.49;66.26;99231.13;5097406;28;8881;-58
2023/09/20 03:38:02;;;;;;;;;1.00;1.00;;;;;17.50;65.87;99235.47;5097235;28;8846;-57
2023/09/20 03:40:30;;;;;;;;;1.80;1.80;;;;;17.50;65.87;99229.25;5096646;28;8811;-57
2023/09/20 03:42:58;;;;;;;;;4.00;1.00;;;;;17.50;65.86;99223.88;5096891;28;8964;-57
2023/09/20 03:45:28;;;;;;;;;0.00;0.00;;;;;17.49;65.92;99217.66;5096875;28;8821;-57
2023/09/20 03:47:57;;;;;;;;;3.60;1.80;;;;;17.49;65.71;99217.66;5096871;28;8829;-57
2023/09/20 03:50:24;;;;;;;;;3.20;3.00;;;;;17.49;66.53;99223.03;5096004;28;8948;-58
2023/09/20 03:52:53;;;;;;;;;3.00;3.00;;;;;17.47;66.34;99221.53;5096011;28;8849;-57
2023/09/20 03:55:21;;;;;;;;;1.40;1.40;;;;;17.46;66.40;99207.25;5097207;28;9626;-59
2023/09/20 03:57:49;;;;;;;;;3.80;3.00;;;;;17.46;66.27;99201.84;5097153;28;9567;-56
2023/09/20 04:00:24;;;;;;;;;1.80;1.80;;;;;17.44;66.50;99206.59;5095987;28;8849;-59
2023/09/20 04:02:53;;;;;;;;;1.00;1.00;;;;;17.44;66.53;99200.34;5096907;28;9502;-59
2023/09/20 04:05:20;;;;;;;;;3.80;3.40;;;;;17.43;66.02;99202.22;5097299;28;8833;-58
2023/09/20 04:08:08;;;;;;;;;1.00;1.00;;;;;17.42;66.39;99192.50;5095834;28;9544;-58
2023/09/20 04:10:36;;;;;;;;;0.00;0.00;;;;;17.42;66.79;99199.72;5095452;28;8860;-60
2023/09/20 04:13:04;;;;;;;;;0.40;0.40;;;;;17.41;66.83;99196.22;5096797;28;8814;-60
2023/09/20 04:15:33;;;;;;;;;0.00;0.00;;;;;17.38;66.82;99188.47;5096074;28;8829;-57
2023/09/20 04:18:08;;;;;;;;;3.00;2.60;;;;;17.37;66.71;99184.13;5095520;28;8814;-57
2023/09/20 04:20:36;;;;;;;;;3.00;2.60;;;;;17.35;67.13;99188.81;5095325;28;9007;-60
2023/09/20 04:23:06;;;;;;;;;3.00;1.00;;;;;17.33;66.83;99188.16;5096445;28;8877;-57
2023/09/20 04:25:34;;;;;;;;;3.00;3.00;;;;;17.32;67.18;99178.41;5096269;28;9561;-57
2023/09/20 04:28:01;;;;;;;;;1.80;1.00;;;;;17.30;66.75;99175.06;5096127;28;8830;-59
2023/09/20 04:30:30;;;;;;;;;3.00;3.00;;;;;17.29;67.29;99173.41;5095768;28;8825;-59
2023/09/20 04:32:58;;;;;;;;;1.80;1.00;;;;;17.29;66.81;99165.31;5095382;28;8885;-60
2023/09/20 04:35:27;;;;;;;;;4.00;3.00;;;;;17.29;67.53;99173.41;5096169;28;8826;-60
2023/09/20 04:37:55;;;;;;;;;0.40;0.00;;;;;17.30;67.02;99168.88;5095329;28;8925;-58
2023/09/20 04:40:23;;;;;;;;;3.00;3.00;;;;;17.31;67.39;99157.06;5095125;28;8873;-59
2023/09/20 04:42:51;;;;;;;;;0.00;0.00;;;;;17.31;66.97;99163.28;5094879;28;8907;-57
2023/09/20 04:45:22;;;;;;;;;0.00;0.00;;;;;17.31;66.82;99160.59;5094959;28;8844;-59
2023/09/20 04:47:50;;;;;;;;;1.00;1.00;;;;;17.29;67.21;99157.25;5094226;28;8860;-59
2023/09/20 04:50:18;;;;;;;;;3.60;3.60;;;;;17.29;67.12;99157.25;5094713;28;8845;-59
2023/09/20 04:52:50;;;;;;;;;4.00;2.60;;;;;17.29;67.22;99164.47;5095180;28;8856;-56
2023/09/20 04:55:19;;;;;;;;;2.20;1.40;;;;;17.28;67.22;99170.88;5094877;28;8837;-57
2023/09/20 04:57:47;;;;;;;;;1.00;1.00;;;;;17.27;67.21;99180.81;5094157;28;8810;-60
2023/09/20 05:00:20;;;;;;;;;3.00;1.00;;;;;17.26;67.00;99168.41;5095107;28;8868;-60
2023/09/20 05:02:47;;;;;;;;;2.20;2.20;;;;;17.27;67.23;99175.44;5094762;28;8862;-60
2023/09/20 05:05:17;;;;;;;;;3.00;1.40;;;;;17.27;67.55;99172.75;5094781;28;8814;-59
2023/09/20 05:07:44;;;;;;;;;0.40;0.40;;;;;17.28;67.30;99165.50;5094532;28;9596;-59
2023/09/20 05:10:12;;;;;;;;;1.00;1.00;;;;;17.28;67.29;99174.41;5094756;28;8822;-59
2023/09/20 05:12:41;;;;;;;;;1.00;1.00;;;;;17.27;67.70;99171.91;5094596;28;9778;-58
2023/09/20 05:15:12;;;;;;;;;3.00;3.00;;;;;17.26;67.93;99173.78;5094205;28;8891;-58
2023/09/20 05:17:39;;;;;;;;;2.60;1.40;;;;;17.26;67.42;99179.16;5094422;28;8833;-59
2023/09/20 05:20:07;;;;;;;;;0.80;0.20;;;;;17.25;67.40;99179.34;5094726;28;8834;-60
2023/09/20 05:22:35;;;;;;;;;1.00;1.00;;;;;17.24;67.91;99177.66;5094970;28;8845;-58
2023/09/20 05:25:04;;;;;;;;;2.60;2.60;;;;;17.23;67.46;99181.38;5094077;28;8848;-59
2023/09/20 05:27:32;;;;;;;;;1.80;1.00;;;;;17.23;67.62;99189.44;5094690;28;8968;-57
2023/09/20 05:30:00;;;;;;;;;6.00;1.00;;;;;17.23;67.75;99184.06;5093951;28;8818;-60
2023/09/20 05:32:28;;;;;;;;;1.00;1.00;;;;;17.26;67.72;99179.16;5094484;28;8889;-57
2023/09/20 05:34:56;;;;;;;;;1.00;1.00;;;;;17.27;68.16;99170.06;5094463;28;8942;-59
2023/09/20 05:37:24;;;;;;;;;2.60;2.20;;;;;17.29;67.61;99164.47;5093887;28;8852;-59
2023/09/20 05:39:52;;;;;;;;;0.60;0.60;;;;;17.31;67.79;99163.28;5093786;28;8818;-57
2023/09/20 05:42:19;;;;;;;;;1.40;1.00;;;;;17.33;67.80;99174.69;5093821;28;8857;-57
2023/09/20 05:44:48;;;;;;;;;2.60;2.60;;;;;17.37;67.36;99170.66;5094457;28;9584;-57
2023/09/20 05:47:16;;;;;;;;;3.00;3.00;;;;;17.40;68.00;99169.47;5094031;28;8830;-59
2023/09/20 05:49:45;;;;;;;;;3.00;3.00;;;;;17.42;67.76;99173.66;5093233;28;8847;-57
2023/09/20 05:52:12;;;;;;;;;3.00;3.00;;;;;17.45;67.37;99170.56;5093080;28;8833;-57
2023/09/20 05:54:40;;;;;;;;;1.80;1.00;;;;;17.48;67.39;99172.06;5092864;28;8860;-59
2023/09/20 05:57:08;;;;;;;;;3.00;2.60;;;;;17.49;67.50;99169.19;5092346;28;8830;-57
2023/09/20 05:59:35;;;;;;;;;1.00;1.00;;;;;17.49;67.97;99169.19;5093360;28;8806;-57
2023/09/20 06:02:05;;;;;;;;;3.00;3.00;;;;;17.52;67.42;99167.97;5092978;28;8830;-57
2023/09/20 06:04:34;;;;;;;;;4.00;3.00;;;;;17.54;67.71;99166.75;5093370;28;8858;-58
2023/09/20 06:07:04;;;;;;;;;1.40;1.40;;;;;17.58;67.64;99172.63;5092220;28;8830;-58
2023/09/20 06:09:32;;;;;;;;;3.00;2.20;;;;;17.61;67.49;99173.09;5091867;28;8814;-59
2023/09/20 06:12:03;;;;;;;;;2.20;0.60;;;;;17.64;67.65;99185.34;5092277;28;8822;-58
2023/09/20 06:14:31;;;;;;;;;1.80;0.80;;;;;17.65;67.56;99174.41;5092721;28;8833;-60
2023/09/20 06:17:00;;;;;;;;;1.00;1.00;;;;;17.64;67.40;99177.28;5096813;28;8833;-58
2023/09/20 06:19:30;;;;;;;;;1.00;1.00;;;;;17.65;68.04;99181.63;5096410;28;8910;-57
2023/09/20 06:21:58;;;;;;;;;1.00;0.40;;;;;17.65;67.64;99187.03;5096407;28;9503;-57
2023/09/20 06:24:26;;;;;;;;;0.20;0.20;;;;;17.64;67.95;99175.44;5096252;28;8822;-58
2023/09/20 06:26:54;;;;;;;;;0.40;0.40;;;;;17.66;68.13;99175.22;5095297;28;8830;-58
2023/09/20 06:29:21;;;;;;;;;4.00;3.00;;;;;17.69;68.04;99172.19;5095849;28;8837;-60
2023/09/20 06:31:49;;;;;;;;;3.00;2.20;;;;;17.73;68.12;99170.75;5095864;28;8973;-56
2023/09/20 06:34:18;;;;;;;;;3.00;1.80;;;;;17.77;67.50;99175.59;5096866;28;8899;-57
2023/09/20 06:36:46;;;;;;;;;3.00;1.80;;;;;17.82;67.52;99173.19;5096784;28;8833;-57
2023/09/20 06:39:18;;;;;;;;;0.60;0.60;;;;;17.84;67.37;99179.22;5096753;28;8833;-59
2023/09/20 06:41:46;;;;;;;;;2.60;2.60;;;;;17.88;67.59;99176.97;5095451;28;8834;-59
2023/09/20 06:44:14;;;;;;;;;3.60;2.60;;;;;17.91;67.43;99172.06;5095981;28;8826;-57
2023/09/20 06:46:43;;;;;;;;;1.80;1.00;;;;;17.97;67.81;99173.16;5095935;28;8849;-59
2023/09/20 06:49:11;;;;;;;;;1.00;1.00;;;;;18.04;67.17;99177.63;5095565;28;8826;-58
2023/09/20 06:51:43;;;;;;;;;1.40;1.00;;;;;18.12;67.00;99177.53;5095953;28;8857;-58
2023/09/20 06:54:11;;;;;;;;;2.60;2.60;;;;;18.22;67.27;99171.84;5097073;28;9521;-58
2023/09/20 06:56:39;;;;;;;;;3.00;2.20;;;;;18.30;66.86;99167.19;5097225;28;8853;-57
2023/09/20 06:59:07;;;;;;;;;1.40;1.40;;;;;18.40;66.85;99170.44;5096401;28;8856;-57
2023/09/20 07:01:34;;;;;;;;;2.20;1.00;;;;;18.48;66.44;99169.47;5095690;28;8937;-59
2023/09/20 07:04:04;;;;;;;;;0.40;0.40;;;;;18.57;66.76;99171.00;5096946;28;8845;-59
2023/09/20 07:06:32;;;;;;;;;0.20;0.20;;;;;18.62;66.70;99158.66;5097355;28;8929;-59
2023/09/20 07:09:00;;;;;;;;;1.00;1.00;;;;;18.69;66.09;99170.34;5096675;28;8858;-57
2023/09/20 07:11:29;;;;;;;;;1.00;1.00;;;;;18.75;66.06;99156.06;5096679;28;8854;-57
2023/09/20 07:13:59;;;;;;;;;1.00;1.00;;;;;18.84;66.26;99179.22;5097040;28;8855;-56
2023/09/20 07:16:27;;;;;;;;;1.00;1.00;;;;;18.90;65.63;99162.22;5096708;28;8826;-58
2023/09/20 07:18:55;;;;;;;;;0.20;0.20;;;;;18.98;65.89;99166.66;5095997;28;8837;-58
2023/09/20 07:21:22;;;;;;;;;1.00;1.00;;;;;19.04;66.15;99164.00;5095393;28;8966;-57
2023/09/20 07:23:50;;;;;;;;;1.00;1.00;;;;;19.10;65.59;99160.53;5095216;28;9520;-58
2023/09/20 07:26:25;;;;;;;;;3.00;3.00;;;;;19.17;65.67;99165.97;5094225;28;8902;-58
2023/09/20 07:28:54;;;;;;;;;2.60;1.80;;;;;19.23;65.33;99162.53;5093826;28;8842;-57
2023/09/20 07:31:26;;;;;;;;;1.40;1.40;;;;;19.26;65.34;99165.69;5094610;28;8903;-56
2023/09/20 07:33:56;;;;;;;;;2.60;2.60;;;;;19.32;65.39;99166.75;5094368;28;8846;-56
2023/09/20 07:36:24;;;;;;;;;1.00;1.00;;;;;19.38;64.96;99152.47;5094436;28;8829;-60
2023/09/20 07:39:08;;;;;;;;;1.00;1.00;;;;;19.48;64.54;99145.69;5095089;28;8854;-58
2023/09/20 07:41:36;;;;;;;;;3.00;1.40;;;;;19.55;64.73;99153.84;5095169;28;8838;-58
2023/09/20 07:44:05;;;;;;;;;1.00;1.00;;;;;19.62;64.36;99149.31;5096082;28;8972;-58
2023/09/20 07:46:38;;;;;;;;;1.00;1.00;;;;;19.70;64.68;99143.75;5096165;28;9522;-59
2023/09/20 07:49:10;;;;;;;;;0.60;0.60;;;;;19.74;64.72;99142.31;5096534;28;9519;-57
2023/09/20 07:51:38;;;;;;;;;1.00;1.00;;;;;19.81;64.57;99135.91;5095838;28;8822;-60
2023/09/20 07:54:08;;;;;;;;;1.40;1.00;;;;;19.85;64.18;99134.47;5093385;28;8842;-59
2023/09/20 07:56:37;;;;;;;;;0.40;0.40;;;;;19.89;64.21;99127.63;5094572;28;8887;-58
2023/09/20 07:59:08;;;;;;;;;0.00;0.00;;;;;19.95;63.82;99126.00;5094050;28;8830;-60
2023/09/20 08:01:36;;;;;;;;;1.00;1.00;;;;;20.00;64.06;99131.63;5094775;28;8842;-60
2023/09/20 08:04:06;;;;;;;;;1.00;1.00;;;;;20.04;64.18;99143.72;5094689;28;8975;-60
2023/09/20 08:06:35;;;;;;;;;2.20;2.20;;;;;20.05;63.83;99140.84;5093766;28;8895;-58
2023/09/20 08:09:03;;;;;;;;;1.60;1.60;;;;;20.07;63.80;99136.06;5094305;28;9752;-60
2023/09/20 08:11:30;;;;;;;;;0.00;0.00;;;;;20.08;63.48;99137.75;5095519;28;8876;-57
2023/09/20 08:13:59;;;;;;;;;2.00;2.00;;;;;20.10;63.36;99135.66;5095008;28;8861;-57
2023/09/20 08:16:28;;;;;;;;;1.00;0.80;;;;;20.12;63.29;99128.19;5094038;28;8900;-60
2023/09/20 08:19:21;;;;;;;;;1.00;1.00;;;;;20.17;63.90;99139.22;5094342;28;8853;-58
2023/09/20 08:21:50;;;;;;;;;0.00;0.00;;;;;20.21;63.88;99128.84;5094989;28;8841;-57
2023/09/20 09:00:19;;;;;;;;;1.20;1.20;;;;;21.49;60.89;99150.88;5093449;28;8834;-58
2023/09/20 09:02:47;;;;;;;;;1.20;1.00;;;;;21.50;60.92;99160.69;5094806;28;8810;-60
2023/09/20 09:05:16;;;;;;;;;0.00;0.00;;;;;21.55;60.29;99169.00;5094481;28;8837;-60
2023/09/20 09:07:43;;;;;;;;;1.20;1.00;;;;;21.58;60.52;99165.88;5093515;28;8814;-59
2023/09/20 09:10:13;;;;;;;;;0.80;0.80;;;;;21.58;60.54;99166.72;5093723;28;9582;-60
2023/09/20 09:12:41;;;;;;;;;1.00;1.00;;;;;21.65;60.58;99172.97;5093807;28;8882;-59
2023/09/20 09:15:09;;;;;;;;;2.00;1.20;;;;;21.78;60.21;99162.09;5094122;28;8821;-60
2023/09/20 09:17:37;;;;;;;;;1.60;1.00;;;;;21.85;59.53;99170.25;5094318;28;8825;-60
2023/09/20 09:20:08;;;;;;;;;1.00;1.00;;;;;21.86;59.56;99171.91;5094643;28;8841;-57
2023/09/20 09:22:37;;;;;;;;;1.00;1.00;;;;;21.91;60.05;99177.50;5095063;28;8850;-60
2023/09/20 09:25:05;;;;;;;;;4.00;2.00;;;;;21.97;59.53;99182.06;5095142;28;8834;-57
2023/09/20 09:27:34;;;;;;;;;1.00;1.00;;;;;21.98;60.13;99176.47;5094806;28;8849;-58
2023/09/20 09:30:02;;;;;;;;;1.00;1.00;;;;;21.95;59.55;99170.63;5073280;28;8994;-59
2023/09/20 09:32:31;;;;;;;;;1.00;1.00;;;;;21.94;59.92;99174.38;5079676;28;8830;-58
2023/09/20 09:34:59;;;;;;;;;1.00;1.00;;;;;21.93;60.13;99170.81;5094788;28;8852;-59
2023/09/20 09:37:27;;;;;;;;;1.00;1.00;;;;;21.95;60.22;99176.03;5093299;28;8862;-58
2023/09/20 09:39:55;;;;;;;;;1.00;1.00;;;;;21.98;59.93;99167.47;5093628;28;8817;-58
2023/09/20 09:42:25;;;;;;;;;0.80;0.80;;;;;21.98;60.03;99176.47;5093656;28;8892;-58
2023/09/20 09:44:54;;;;;;;;;0.20;0.20;;;;;21.95;59.98;99173.34;5093392;28;8829;-58
2023/09/20 09:47:24;;;;;;;;;0.00;0.00;;;;;21.93;60.40;99170.81;5094080;28;8992;-57
2023/09/20 09:49:52;;;;;;;;;1.00;1.00;;;;;21.85;60.59;99183.81;5093321;28;8874;-58
2023/09/20 09:52:23;;;;;;;;;1.00;1.00;;;;;21.72;60.20;99173.78;5093492;28;8938;-58
2023/09/20 09:54:50;;;;;;;;;0.00;0.00;;;;;21.61;60.47;99174.41;5093916;28;8840;-58
2023/09/20 09:57:19;;;;;;;;;2.00;2.00;;;;;21.54;61.10;99175.44;5093499;28;8814;-58
2023/09/20 09:59:47;;;;;;;;;0.00;0.00;;;;;21.50;61.28;99182.34;5093354;28;8818;-58
2023/09/20 10:02:17;;;;;;;;;1.20;1.20;;;;;21.51;60.85;99179.44;5094004;28;8826;-58
2023/09/20 10:04:45;;;;;;;;;1.00;1.00;;;;;21.51;61.07;99187.56;5093644;28;8838;-58
2023/09/20 10:07:16;;;;;;;;;0.60;0.60;;;;;21.53;60.98;99168.38;5092846;28;8830;-58
2023/09/20 10:09:44;;;;;;;;;1.00;1.00;;;;;21.54;61.03;99183.59;5092993;28;8826;-58
2023/09/20 10:12:15;;;;;;;;;0.00;0.00;;;;;21.60;60.87;99169.19;5093779;28;8832;-59
2023/09/20 10:14:43;;;;;;;;;1.00;1.00;;;;;21.88;60.29;99162.47;5092601;28;8842;-57
2023/09/20 10:17:14;;;;;;;;;1.00;1.00;;;;;22.24;59.68;99165.50;5093543;28;8961;-58
2023/09/20 10:19:42;;;;;;;;;0.80;0.80;;;;;22.61;58.91;99150.34;5092312;28;8846;-57
2023/09/20 10:22:10;;;;;;;;;1.00;1.00;;;;;22.83;57.91;99146.22;5092203;28;8822;-58
2023/09/20 10:24:38;;;;;;;;;1.00;1.00;;;;;22.90;58.20;99141.56;5092533;28;8840;-58
2023/09/20 10:27:10;;;;;;;;;1.00;1.00;;;;;23.04;57.96;99145.84;5092634;28;8850;-57
2023/09/20 10:29:42;;;;;;;;;1.00;1.00;;;;;23.39;56.71;99147.88;5093585;28;8921;-58
2023/09/20 10:32:13;;;;;;;;;1.40;1.40;;;;;23.93;56.17;99144.44;5093619;28;8853;-58
2023/09/20 10:34:41;;;;;;;;;1.00;1.00;;;;;24.11;55.48;99147.97;5093861;28;8841;-59
2023/09/20 10:37:09;;;;;;;;;0.00;0.00;;;;;23.93;55.86;99138.97;5093803;28;8914;-58
2023/09/20 10:39:38;;;;;;;;;1.60;1.60;;;;;23.76;56.40;99149.59;5094358;28;8834;-58
2023/09/20 10:42:05;;;;;;;;;1.40;1.40;;;;;23.62;57.10;99147.25;5093828;28;8844;-57
2023/09/20 10:44:35;;;;;;;;;2.00;1.00;;;;;23.49;57.42;99147.34;5093462;28;8849;-57
2023/09/20 10:47:04;;;;;;;;;1.80;1.40;;;;;23.39;57.68;99147.03;5073459;28;8929;-60
2023/09/20 10:49:33;;;;;;;;;2.00;1.00;;;;;23.39;57.17;99139.75;5073141;28;8836;-58
2023/09/20 10:52:03;;;;;;;;;1.00;1.00;;;;;23.50;57.36;99132.72;5073703;28;8809;-61
2023/09/20 10:54:36;;;;;;;;;1.00;1.00;;;;;23.54;56.90;99129.34;5074083;28;9497;-58
2023/09/20 10:57:05;;;;;;;;;1.00;1.00;;;;;23.43;57.27;99126.53;5083685;28;8834;-58
2023/09/20 10:59:33;;;;;;;;;1.60;1.20;;;;;23.39;56.95;99128.88;5092823;28;8812;-60
2023/09/20 11:02:01;;;;;;;;;1.00;1.00;;;;;23.39;57.65;99134.31;5093597;28;8818;-60
2023/09/20 11:04:29;;;;;;;;;1.20;1.00;;;;;23.40;57.55;99132.41;5097598;28;8854;-59
2023/09/20 11:06:59;;;;;;;;;1.00;1.00;;;;;23.45;56.87;99118.97;5097561;28;8825;-60
2023/09/20 11:09:31;;;;;;;;;2.40;2.00;;;;;23.55;57.19;99125.56;5096936;28;8830;-59
2023/09/20 11:12:04;;;;;;;;;1.00;1.00;;;;;23.79;56.99;99121.97;5096806;28;8825;-60
2023/09/20 11:14:32;;;;;;;;;1.20;1.20;;;;;24.01;56.39;99115.03;5096530;28;8959;-59
2023/09/20 11:17:03;;;;;;;;;2.00;2.00;;;;;24.14;56.27;99116.75;5096042;28;8845;-58
2023/09/20 11:19:31;;;;;;;;;0.80;0.80;;;;;24.33;55.75;99113.78;5095854;28;8826;-57
2023/09/20 11:21:59;;;;;;;;;0.00;0.00;;;;;24.63;55.01;99111.06;5095432;28;8818;-59
2023/09/20 11:24:27;;;;;;;;;1.00;1.00;;;;;25.08;54.24;99107.63;5095576;28;8980;-58
2023/09/20 11:26:55;;;;;;;;;1.80;1.00;;;;;25.73;52.49;99107.31;5095203;28;8852;-59
2023/09/20 11:29:23;;;;;;;;;1.00;1.00;;;;;26.22;51.45;99095.84;5095391;28;8830;-59
2023/09/20 11:31:51;;;;;;;;;1.60;1.40;;;;;26.42;51.14;99104.44;5095883;28;9504;-58
2023/09/20 11:34:19;;;;;;;;;1.00;1.00;;;;;26.04;51.55;99087.00;5095762;28;8880;-59
2023/09/20 11:36:48;;;;;;;;;1.00;1.00;;;;;26.04;51.75;99087.81;5095636;28;8836;-59
2023/09/20 11:39:18;;;;;;;;;2.00;2.00;;;;;26.21;50.76;99099.66;5096061;28;8822;-57
2023/09/20 11:41:45;;;;;;;;;2.00;1.20;;;;;26.62;50.41;99085.72;5095785;28;8891;-58
2023/09/20 11:44:15;;;;;;;;;3.00;2.00;;;;;26.94;49.65;99094.22;5095367;28;8842;-58
2023/09/20 11:46:47;;;;;;;;;1.60;1.60;;;;;27.42;48.81;99089.88;5095545;28;8825;-59
2023/09/20 11:49:15;;;;;;;;;1.00;1.00;;;;;27.66;48.17;99094.06;5095829;28;9555;-58
2023/09/20 11:51:43;;;;;;;;;1.40;1.40;;;;;27.20;48.92;99090.84;5094734;28;8838;-60
2023/09/20 11:54:13;;;;;;;;;2.60;1.80;;;;;26.80;49.52;99081.97;5093584;28;8968;-59
2023/09/20 11:56:41;;;;;;;;;1.00;1.00;;;;;26.73;49.61;99086.75;5094060;28;8834;-59
2023/09/20 11:59:10;;;;;;;;;1.60;1.60;;;;;26.70;49.53;99081.78;5094219;28;8834;-58
2023/09/20 12:01:37;;;;;;;;;2.00;2.00;;;;;26.52;50.35;99091.03;5094304;28;8837;-60
2023/09/20 12:04:05;;;;;;;;;1.00;1.00;;;;;25.96;51.00;99099.13;5094645;28;8864;-58
2023/09/20 12:06:35;;;;;;;;;1.00;1.00;;;;;25.68;51.79;99093.59;5094846;28;8846;-59
2023/09/20 12:09:04;;;;;;;;;1.00;1.00;;;;;25.60;52.18;99090.38;5094913;28;8822;-60
2023/09/20 12:11:32;;;;;;;;;1.00;1.00;;;;;25.62;51.36;99092.88;5095327;28;8910;-58
2023/09/20 12:14:01;;;;;;;;;0.80;0.20;;;;;25.85;50.96;99090.94;5094885;28;8830;-58
2023/09/20 12:16:29;;;;;;;;;2.00;2.00;;;;;25.70;51.49;99085.97;5094230;28;8833;-58
2023/09/20 12:18:58;;;;;;;;;1.00;1.00;;;;;25.52;51.33;99081.72;5094588;28;8845;-59
2023/09/20 12:21:27;;;;;;;;;1.00;1.00;;;;;25.78;50.45;99091.06;5094814;28;8845;-60
2023/09/20 12:23:55;;;;;;;;;1.00;1.00;;;;;25.93;50.68;99091.44;5095402;28;9587;-58